sensor_id;sensor_type;location;lat;lon;timestamp;pressure;altitude;pressure_sealevel;temperature;humidity
25392;BME280;13329;48.402;11.718;2024-02-21T00:01:32;97216.03;;;6.06;77.23
25392;BME280;13329;48.402;11.718;2024-02-21T00:03:58;97223.06;;;5.99;78.15
25392;BME280;13329;48.402;11.718;2024-02-21T00:06:23;97223.94;;;6.32;77.54
25392;BME280;13329;48.402;11.718;2024-02-21T00:08:48;97221.75;;;6.49;76.13
25392;BME280;13329;48.402;11.718;2024-02-21T00:11:14;97219.94;;;6.76;75.57
25392;BME280;13329;48.402;11.718;2024-02-21T00:13:39;97217.31;;;6.63;75.68
25392;BME280;13329;48.402;11.718;2024-02-21T00:16:04;97207.81;;;6.75;75.04
25392;BME280;13329;48.402;11.718;2024-02-21T00:18:30;97204.38;;;6.55;75.07
25392;BME280;13329;48.402;11.718;2024-02-21T00:20:55;97206.19;;;6.61;75.30
25392;BME280;13329;48.402;11.718;2024-02-21T00:23:21;97199.16;;;6.68;75.18
25392;BME280;13329;48.402;11.718;2024-02-21T00:25:46;97199.94;;;6.68;73.86
25392;BME280;13329;48.402;11.718;2024-02-21T00:28:11;97196.13;;;6.45;75.06
25392;BME280;13329;48.402;11.718;2024-02-21T00:30:37;97206.56;;;6.05;76.22
25392;BME280;13329;48.402;11.718;2024-02-21T00:33:03;97195.69;;;6.21;76.43
25392;BME280;13329;48.402;11.718;2024-02-21T00:35:28;97187.44;;;6.51;75.18
25392;BME280;13329;48.402;11.718;2024-02-21T00:37:54;97193.91;;;6.61;74.94
25392;BME280;13329;48.402;11.718;2024-02-21T00:40:19;97186.44;;;6.45;74.94
25392;BME280;13329;48.402;11.718;2024-02-21T00:42:46;97191.88;;;6.70;74.84
25392;BME280;13329;48.402;11.718;2024-02-21T00:45:11;97185.00;;;6.82;74.07
25392;BME280;13329;48.402;11.718;2024-02-21T00:47:37;97174.13;;;6.32;74.87
25392;BME280;13329;48.402;11.718;2024-02-21T00:50:02;97178.97;;;6.55;74.42
25392;BME280;13329;48.402;11.718;2024-02-21T00:52:27;97184.22;;;6.35;75.85
25392;BME280;13329;48.402;11.718;2024-02-21T00:54:53;97185.00;;;6.23;75.87
25392;BME280;13329;48.402;11.718;2024-02-21T00:57:18;97180.97;;;6.07;76.61
25392;BME280;13329;48.402;11.718;2024-02-21T00:59:43;97184.88;;;5.70;77.81
25392;BME280;13329;48.402;11.718;2024-02-21T01:02:09;97177.31;;;5.33;79.41
25392;BME280;13329;48.402;11.718;2024-02-21T01:04:35;97187.13;;;5.25;80.23
25392;BME280;13329;48.402;11.718;2024-02-21T01:07:00;97183.91;;;5.23;80.88
25392;BME280;13329;48.402;11.718;2024-02-21T01:09:25;97178.31;;;5.32;79.96
25392;BME280;13329;48.402;11.718;2024-02-21T01:11:51;97178.09;;;5.27;81.17
25392;BME280;13329;48.402;11.718;2024-02-21T01:14:16;97172.16;;;5.12;80.64
25392;BME280;13329;48.402;11.718;2024-02-21T01:16:41;97171.66;;;5.36;80.36
25392;BME280;13329;48.402;11.718;2024-02-21T01:19:07;97170.63;;;5.85;78.12
25392;BME280;13329;48.402;11.718;2024-02-21T01:21:32;97165.56;;;5.77;78.00
25392;BME280;13329;48.402;11.718;2024-02-21T01:23:57;97167.44;;;5.35;79.33
25392;BME280;13329;48.402;11.718;2024-02-21T01:26:23;97158.84;;;5.55;79.40
25392;BME280;13329;48.402;11.718;2024-02-21T01:28:48;97157.47;;;5.59;78.67
25392;BME280;13329;48.402;11.718;2024-02-21T01:31:13;97148.66;;;5.73;79.05
25392;BME280;13329;48.402;11.718;2024-02-21T01:33:40;97152.28;;;5.65;78.04
25392;BME280;13329;48.402;11.718;2024-02-21T01:36:06;97144.84;;;5.21;79.67
25392;BME280;13329;48.402;11.718;2024-02-21T01:38:32;97152.47;;;5.16;80.49
25392;BME280;13329;48.402;11.718;2024-02-21T01:40:57;97152.53;;;5.23;80.39
25392;BME280;13329;48.402;11.718;2024-02-21T01:43:23;97146.50;;;5.35;80.29
25392;BME280;13329;48.402;11.718;2024-02-21T01:45:53;97149.41;;;5.54;78.93
25392;BME280;13329;48.402;11.718;2024-02-21T01:48:19;97138.06;;;5.40;79.67
25392;BME280;13329;48.402;11.718;2024-02-21T01:50:52;97140.19;;;5.10;80.98
25392;BME280;13329;48.402;11.718;2024-02-21T01:53:30;97133.69;;;4.99;81.22
25392;BME280;13329;48.402;11.718;2024-02-21T01:55:57;97129.06;;;4.95;81.75
25392;BME280;13329;48.402;11.718;2024-02-21T01:58:23;97132.81;;;4.85;82.39
25392;BME280;13329;48.402;11.718;2024-02-21T02:00:50;97118.44;;;4.68;82.87
25392;BME280;13329;48.402;11.718;2024-02-21T02:03:15;97116.63;;;4.69;83.82
25392;BME280;13329;48.402;11.718;2024-02-21T02:05:47;97112.63;;;4.73;83.62
25392;BME280;13329;48.402;11.718;2024-02-21T02:08:14;97111.09;;;4.85;83.44
25392;BME280;13329;48.402;11.718;2024-02-21T02:10:40;97104.44;;;4.82;82.77
25392;BME280;13329;48.402;11.718;2024-02-21T02:13:06;97103.91;;;4.59;83.85
25392;BME280;13329;48.402;11.718;2024-02-21T02:15:45;97103.06;;;4.52;85.14
25392;BME280;13329;48.402;11.718;2024-02-21T02:18:12;97100.78;;;4.42;85.77
25392;BME280;13329;48.402;11.718;2024-02-21T02:20:38;97089.00;;;4.53;84.69
25392;BME280;13329;48.402;11.718;2024-02-21T02:23:07;97091.91;;;4.71;83.64
25392;BME280;13329;48.402;11.718;2024-02-21T02:25:34;97081.97;;;4.95;82.78
25392;BME280;13329;48.402;11.718;2024-02-21T02:27:59;97086.03;;;4.62;83.38
25392;BME280;13329;48.402;11.718;2024-02-21T02:30:25;97085.03;;;4.63;83.78
25392;BME280;13329;48.402;11.718;2024-02-21T02:32:50;97076.31;;;4.50;84.82
25392;BME280;13329;48.402;11.718;2024-02-21T02:35:15;97079.44;;;4.67;83.99
25392;BME280;13329;48.402;11.718;2024-02-21T02:37:47;97076.69;;;4.81;83.02
25392;BME280;13329;48.402;11.718;2024-02-21T02:40:13;97078.78;;;4.64;83.42
25392;BME280;13329;48.402;11.718;2024-02-21T02:42:38;97068.69;;;4.55;83.77
25392;BME280;13329;48.402;11.718;2024-02-21T02:45:04;97069.28;;;4.50;84.25
25392;BME280;13329;48.402;11.718;2024-02-21T02:47:29;97066.03;;;4.42;84.63
25392;BME280;13329;48.402;11.718;2024-02-21T02:49:54;97061.69;;;4.55;84.58
25392;BME280;13329;48.402;11.718;2024-02-21T02:52:20;97057.53;;;4.74;84.10
25392;BME280;13329;48.402;11.718;2024-02-21T02:54:45;97052.06;;;4.69;84.15
25392;BME280;13329;48.402;11.718;2024-02-21T02:57:10;97052.72;;;4.71;82.99
25392;BME280;13329;48.402;11.718;2024-02-21T02:59:36;97053.63;;;4.57;84.20
25392;BME280;13329;48.402;11.718;2024-02-21T03:02:01;97056.09;;;4.65;83.42
25392;BME280;13329;48.402;11.718;2024-02-21T03:04:27;97042.41;;;4.63;83.87
25392;BME280;13329;48.402;11.718;2024-02-21T03:06:52;97048.13;;;4.45;84.83
25392;BME280;13329;48.402;11.718;2024-02-21T03:09:18;97045.94;;;4.42;85.53
25392;BME280;13329;48.402;11.718;2024-02-21T03:11:43;97050.59;;;4.53;85.08
25392;BME280;13329;48.402;11.718;2024-02-21T03:14:09;97052.84;;;4.63;85.25
25392;BME280;13329;48.402;11.718;2024-02-21T03:16:35;97053.66;;;4.63;84.58
25392;BME280;13329;48.402;11.718;2024-02-21T03:19:00;97054.06;;;4.60;85.33
25392;BME280;13329;48.402;11.718;2024-02-21T03:21:25;97054.53;;;4.77;84.79
25392;BME280;13329;48.402;11.718;2024-02-21T03:23:50;97047.13;;;4.81;84.85
25392;BME280;13329;48.402;11.718;2024-02-21T03:26:16;97048.94;;;4.87;84.81
25392;BME280;13329;48.402;11.718;2024-02-21T03:28:42;97050.97;;;4.85;84.55
25392;BME280;13329;48.402;11.718;2024-02-21T03:31:11;97055.69;;;4.68;85.67
25392;BME280;13329;48.402;11.718;2024-02-21T03:33:36;97047.25;;;4.66;86.15
25392;BME280;13329;48.402;11.718;2024-02-21T03:36:02;97053.97;;;4.82;87.18
25392;BME280;13329;48.402;11.718;2024-02-21T03:38:29;97050.06;;;5.19;85.03
25392;BME280;13329;48.402;11.718;2024-02-21T03:40:54;97047.84;;;5.16;83.96
25392;BME280;13329;48.402;11.718;2024-02-21T03:43:19;97047.41;;;5.12;83.51
25392;BME280;13329;48.402;11.718;2024-02-21T03:45:44;97036.84;;;5.54;82.76
25392;BME280;13329;48.402;11.718;2024-02-21T03:48:10;97030.09;;;5.05;83.29
25392;BME280;13329;48.402;11.718;2024-02-21T03:50:35;97035.50;;;4.97;84.04
25392;BME280;13329;48.402;11.718;2024-02-21T03:53:00;97033.56;;;5.19;83.94
25392;BME280;13329;48.402;11.718;2024-02-21T03:55:26;97024.19;;;4.76;85.72
25392;BME280;13329;48.402;11.718;2024-02-21T03:57:51;97028.19;;;4.79;86.40
25392;BME280;13329;48.402;11.718;2024-02-21T04:00:17;97028.06;;;4.94;85.69
25392;BME280;13329;48.402;11.718;2024-02-21T04:02:42;97024.81;;;4.85;85.41
25392;BME280;13329;48.402;11.718;2024-02-21T04:05:08;97026.06;;;4.96;84.91
25392;BME280;13329;48.402;11.718;2024-02-21T04:07:37;97018.38;;;4.87;84.92
25392;BME280;13329;48.402;11.718;2024-02-21T04:10:02;97018.72;;;4.71;86.84
25392;BME280;13329;48.402;11.718;2024-02-21T04:12:27;97020.03;;;4.54;87.50
25392;BME280;13329;48.402;11.718;2024-02-21T04:14:53;97022.00;;;4.45;88.70
25392;BME280;13329;48.402;11.718;2024-02-21T04:17:18;97023.22;;;4.43;89.51
25392;BME280;13329;48.402;11.718;2024-02-21T04:19:43;97013.66;;;4.63;88.62
25392;BME280;13329;48.402;11.718;2024-02-21T04:22:09;97017.28;;;4.62;87.68
25392;BME280;13329;48.402;11.718;2024-02-21T04:24:34;97018.72;;;4.71;87.29
25392;BME280;13329;48.402;11.718;2024-02-21T04:26:59;97010.91;;;4.78;86.70
25392;BME280;13329;48.402;11.718;2024-02-21T04:29:24;97004.63;;;4.66;87.83
25392;BME280;13329;48.402;11.718;2024-02-21T04:31:50;96998.97;;;4.62;87.82
25392;BME280;13329;48.402;11.718;2024-02-21T04:34:15;96999.84;;;4.76;86.95
25392;BME280;13329;48.402;11.718;2024-02-21T04:36:40;97004.28;;;4.75;87.19
25392;BME280;13329;48.402;11.718;2024-02-21T04:39:06;96999.06;;;4.82;86.63
25392;BME280;13329;48.402;11.718;2024-02-21T04:41:31;96994.19;;;4.72;87.12
25392;BME280;13329;48.402;11.718;2024-02-21T04:43:56;96992.63;;;4.84;87.33
25392;BME280;13329;48.402;11.718;2024-02-21T04:46:22;96981.00;;;5.00;85.95
25392;BME280;13329;48.402;11.718;2024-02-21T04:48:47;96979.03;;;5.35;84.09
25392;BME280;13329;48.402;11.718;2024-02-21T04:51:12;96973.00;;;5.28;82.98
25392;BME280;13329;48.402;11.718;2024-02-21T04:53:39;96964.75;;;5.31;82.64
25392;BME280;13329;48.402;11.718;2024-02-21T04:56:04;96967.16;;;5.39;82.60
25392;BME280;13329;48.402;11.718;2024-02-21T04:58:29;96956.09;;;5.51;81.48
25392;BME280;13329;48.402;11.718;2024-02-21T05:00:55;96947.97;;;4.79;83.95
25392;BME280;13329;48.402;11.718;2024-02-21T05:03:20;96949.53;;;4.67;86.01
25392;BME280;13329;48.402;11.718;2024-02-21T05:05:47;96942.53;;;4.87;85.08
25392;BME280;13329;48.402;11.718;2024-02-21T05:08:12;96943.13;;;4.83;86.16
25392;BME280;13329;48.402;11.718;2024-02-21T05:10:37;96943.34;;;4.81;85.93
25392;BME280;13329;48.402;11.718;2024-02-21T05:13:03;96940.16;;;5.06;84.30
25392;BME280;13329;48.402;11.718;2024-02-21T05:15:29;96940.78;;;5.08;84.86
25392;BME280;13329;48.402;11.718;2024-02-21T05:17:54;96943.94;;;4.70;84.89
25392;BME280;13329;48.402;11.718;2024-02-21T05:20:19;96937.22;;;4.48;86.70
25392;BME280;13329;48.402;11.718;2024-02-21T05:22:45;96933.81;;;4.54;87.20
25392;BME280;13329;48.402;11.718;2024-02-21T05:25:10;96934.69;;;4.87;85.97
25392;BME280;13329;48.402;11.718;2024-02-21T05:27:35;96929.91;;;5.04;84.26
25392;BME280;13329;48.402;11.718;2024-02-21T05:30:02;96926.31;;;5.25;82.32
25392;BME280;13329;48.402;11.718;2024-02-21T05:32:27;96918.22;;;4.87;84.22
25392;BME280;13329;48.402;11.718;2024-02-21T05:34:53;96920.19;;;4.72;85.92
25392;BME280;13329;48.402;11.718;2024-02-21T05:37:18;96919.72;;;4.55;86.36
25392;BME280;13329;48.402;11.718;2024-02-21T05:39:43;96909.09;;;4.63;85.16
25392;BME280;13329;48.402;11.718;2024-02-21T05:42:09;96917.59;;;4.72;85.03
25392;BME280;13329;48.402;11.718;2024-02-21T05:44:34;96897.69;;;4.77;84.13
25392;BME280;13329;48.402;11.718;2024-02-21T05:46:59;96901.69;;;4.67;84.73
25392;BME280;13329;48.402;11.718;2024-02-21T05:49:25;96895.91;;;4.84;84.26
25392;BME280;13329;48.402;11.718;2024-02-21T05:51:50;96893.22;;;4.58;84.80
25392;BME280;13329;48.402;11.718;2024-02-21T05:54:15;96890.03;;;4.82;84.88
25392;BME280;13329;48.402;11.718;2024-02-21T05:56:45;96890.22;;;4.74;84.75
25392;BME280;13329;48.402;11.718;2024-02-21T05:59:11;96885.78;;;4.68;84.76
25392;BME280;13329;48.402;11.718;2024-02-21T06:01:36;96894.25;;;4.77;84.73
25392;BME280;13329;48.402;11.718;2024-02-21T06:04:01;96885.22;;;4.79;84.56
25392;BME280;13329;48.402;11.718;2024-02-21T06:06:27;96883.19;;;4.68;85.59
25392;BME280;13329;48.402;11.718;2024-02-21T06:08:52;96880.81;;;4.86;85.33
25392;BME280;13329;48.402;11.718;2024-02-21T06:11:17;96880.97;;;4.72;85.24
25392;BME280;13329;48.402;11.718;2024-02-21T06:13:42;96887.81;;;4.66;85.40
25392;BME280;13329;48.402;11.718;2024-02-21T06:16:08;96882.63;;;5.06;84.00
25392;BME280;13329;48.402;11.718;2024-02-21T06:18:35;96886.06;;;5.26;82.69
25392;BME280;13329;48.402;11.718;2024-02-21T06:21:00;96881.22;;;5.10;82.69
25392;BME280;13329;48.402;11.718;2024-02-21T06:23:26;96874.59;;;5.34;81.97
25392;BME280;13329;48.402;11.718;2024-02-21T06:25:51;96882.00;;;5.70;79.97
25392;BME280;13329;48.402;11.718;2024-02-21T06:28:17;96872.28;;;5.90;78.46
25392;BME280;13329;48.402;11.718;2024-02-21T06:30:42;96874.34;;;5.55;79.32
25392;BME280;13329;48.402;11.718;2024-02-21T06:33:07;96877.00;;;5.35;80.55
25392;BME280;13329;48.402;11.718;2024-02-21T06:35:33;96876.78;;;4.91;82.05
25392;BME280;13329;48.402;11.718;2024-02-21T06:37:59;96880.16;;;4.58;85.39
25392;BME280;13329;48.402;11.718;2024-02-21T06:40:24;96887.94;;;4.38;86.81
25392;BME280;13329;48.402;11.718;2024-02-21T06:42:50;96883.81;;;4.16;88.54
25392;BME280;13329;48.402;11.718;2024-02-21T06:45:16;96895.34;;;3.86;90.68
25392;BME280;13329;48.402;11.718;2024-02-21T06:47:41;96886.63;;;4.07;90.12
25392;BME280;13329;48.402;11.718;2024-02-21T06:50:07;96891.28;;;4.19;89.02
25392;BME280;13329;48.402;11.718;2024-02-21T06:52:34;96888.72;;;4.32;88.29
25392;BME280;13329;48.402;11.718;2024-02-21T06:54:59;96885.13;;;4.40;87.71
25392;BME280;13329;48.402;11.718;2024-02-21T06:57:24;96876.31;;;4.54;86.96
25392;BME280;13329;48.402;11.718;2024-02-21T06:59:50;96884.78;;;4.69;85.79
25392;BME280;13329;48.402;11.718;2024-02-21T07:02:15;96887.63;;;4.87;84.03
25392;BME280;13329;48.402;11.718;2024-02-21T07:04:40;96889.06;;;4.90;83.20
25392;BME280;13329;48.402;11.718;2024-02-21T07:07:06;96887.06;;;4.99;83.53
25392;BME280;13329;48.402;11.718;2024-02-21T07:09:31;96885.25;;;5.06;82.42
25392;BME280;13329;48.402;11.718;2024-02-21T07:12:00;96877.41;;;5.19;82.01
25392;BME280;13329;48.402;11.718;2024-02-21T07:14:25;96880.84;;;5.13;82.30
25392;BME280;13329;48.402;11.718;2024-02-21T07:16:51;96882.22;;;5.35;80.85
25392;BME280;13329;48.402;11.718;2024-02-21T07:19:16;96884.44;;;5.25;80.07
25392;BME280;13329;48.402;11.718;2024-02-21T07:21:42;96880.03;;;5.19;79.48
25392;BME280;13329;48.402;11.718;2024-02-21T07:24:08;96878.81;;;5.02;79.57
25392;BME280;13329;48.402;11.718;2024-02-21T07:26:34;96868.75;;;4.99;80.64
25392;BME280;13329;48.402;11.718;2024-02-21T07:28:59;96874.38;;;4.96;80.74
25392;BME280;13329;48.402;11.718;2024-02-21T07:31:25;96866.34;;;5.10;80.92
25392;BME280;13329;48.402;11.718;2024-02-21T07:33:50;96874.78;;;4.99;82.30
25392;BME280;13329;48.402;11.718;2024-02-21T07:36:15;96881.63;;;4.94;84.12
25392;BME280;13329;48.402;11.718;2024-02-21T07:38:49;96881.22;;;5.10;83.58
25392;BME280;13329;48.402;11.718;2024-02-21T07:41:14;96875.19;;;5.29;83.20
25392;BME280;13329;48.402;11.718;2024-02-21T07:43:39;96869.94;;;5.43;81.81
25392;BME280;13329;48.402;11.718;2024-02-21T07:46:05;96871.56;;;5.44;82.09
25392;BME280;13329;48.402;11.718;2024-02-21T07:48:30;96866.69;;;5.67;80.74
25392;BME280;13329;48.402;11.718;2024-02-21T07:50:55;96861.84;;;5.64;79.48
25392;BME280;13329;48.402;11.718;2024-02-21T07:53:20;96848.56;;;5.59;79.79
25392;BME280;13329;48.402;11.718;2024-02-21T07:55:46;96839.34;;;5.36;79.96
25392;BME280;13329;48.402;11.718;2024-02-21T07:58:11;96841.34;;;5.48;78.77
25392;BME280;13329;48.402;11.718;2024-02-21T08:00:37;96844.09;;;5.86;78.50
25392;BME280;13329;48.402;11.718;2024-02-21T08:03:02;96841.53;;;6.24;75.42
25392;BME280;13329;48.402;11.718;2024-02-21T08:05:28;96832.03;;;6.30;75.46
25392;BME280;13329;48.402;11.718;2024-02-21T08:07:55;96825.81;;;6.24;73.29
25392;BME280;13329;48.402;11.718;2024-02-21T08:10:20;96818.88;;;6.43;73.38
25392;BME280;13329;48.402;11.718;2024-02-21T08:12:45;96815.03;;;7.82;68.67
25392;BME280;13329;48.402;11.718;2024-02-21T08:15:11;96810.94;;;9.54;63.30
25392;BME280;13329;48.402;11.718;2024-02-21T08:17:37;96801.66;;;10.43;59.52
25392;BME280;13329;48.402;11.718;2024-02-21T08:20:04;96809.44;;;11.12;56.88
25392;BME280;13329;48.402;11.718;2024-02-21T08:22:29;96809.25;;;11.74;54.55
25392;BME280;13329;48.402;11.718;2024-02-21T08:24:55;96814.13;;;10.76;56.29
25392;BME280;13329;48.402;11.718;2024-02-21T08:27:20;96813.84;;;10.44;57.01
25392;BME280;13329;48.402;11.718;2024-02-21T08:29:45;96809.13;;;9.54;59.99
25392;BME280;13329;48.402;11.718;2024-02-21T08:32:10;96806.69;;;9.17;59.31
25392;BME280;13329;48.402;11.718;2024-02-21T08:34:36;96804.50;;;10.25;56.92
25392;BME280;13329;48.402;11.718;2024-02-21T08:37:01;96800.81;;;10.55;55.76
25392;BME280;13329;48.402;11.718;2024-02-21T08:39:26;96803.34;;;10.78;54.55
25392;BME280;13329;48.402;11.718;2024-02-21T08:41:54;96818.97;;;10.68;54.67
25392;BME280;13329;48.402;11.718;2024-02-21T08:44:19;96810.19;;;9.82;56.57
25392;BME280;13329;48.402;11.718;2024-02-21T08:46:44;96819.38;;;9.79;56.58
25392;BME280;13329;48.402;11.718;2024-02-21T08:49:10;96819.78;;;9.99;56.80
25392;BME280;13329;48.402;11.718;2024-02-21T08:51:35;96815.41;;;10.05;55.95
25392;BME280;13329;48.402;11.718;2024-02-21T08:54:00;96815.72;;;9.80;56.06
25392;BME280;13329;48.402;11.718;2024-02-21T08:56:26;96812.19;;;9.63;58.16
25392;BME280;13329;48.402;11.718;2024-02-21T08:58:51;96813.09;;;10.94;55.00
25392;BME280;13329;48.402;11.718;2024-02-21T09:01:16;96817.72;;;11.21;53.54
25392;BME280;13329;48.402;11.718;2024-02-21T09:03:42;96805.78;;;11.91;52.02
25392;BME280;13329;48.402;11.718;2024-02-21T09:06:09;96813.31;;;11.99;52.07
25392;BME280;13329;48.402;11.718;2024-02-21T09:08:35;96805.38;;;12.48;51.60
25392;BME280;13329;48.402;11.718;2024-02-21T09:11:01;96799.56;;;11.41;52.03
25392;BME280;13329;48.402;11.718;2024-02-21T09:13:26;96797.06;;;11.51;51.87
25392;BME280;13329;48.402;11.718;2024-02-21T09:15:52;96803.94;;;10.51;53.32
25392;BME280;13329;48.402;11.718;2024-02-21T09:18:17;96789.88;;;10.96;53.41
25392;BME280;13329;48.402;11.718;2024-02-21T09:20:43;96791.94;;;11.45;52.11
25392;BME280;13329;48.402;11.718;2024-02-21T09:23:08;96796.31;;;10.84;53.27
25392;BME280;13329;48.402;11.718;2024-02-21T09:25:34;96795.94;;;10.63;54.40
25392;BME280;13329;48.402;11.718;2024-02-21T09:28:01;96789.78;;;10.29;55.36
25392;BME280;13329;48.402;11.718;2024-02-21T09:30:27;96792.13;;;10.14;55.17
25392;BME280;13329;48.402;11.718;2024-02-21T09:32:52;96801.50;;;10.95;54.65
25392;BME280;13329;48.402;11.718;2024-02-21T09:35:18;96790.47;;;10.98;53.58
25392;BME280;13329;48.402;11.718;2024-02-21T09:37:43;96798.53;;;11.09;52.97
25392;BME280;13329;48.402;11.718;2024-02-21T09:40:09;96796.28;;;10.67;53.44
25392;BME280;13329;48.402;11.718;2024-02-21T09:42:38;96794.84;;;11.10;52.80
25392;BME280;13329;48.402;11.718;2024-02-21T09:45:27;96786.34;;;11.41;52.38
25392;BME280;13329;48.402;11.718;2024-02-21T09:48:19;96786.38;;;11.08;51.96
25392;BME280;13329;48.402;11.718;2024-02-21T09:50:50;96774.09;;;11.35;52.81
25392;BME280;13329;48.402;11.718;2024-02-21T09:53:16;96769.84;;;11.73;51.78
25392;BME280;13329;48.402;11.718;2024-02-21T09:55:44;96761.88;;;12.66;49.99
25392;BME280;13329;48.402;11.718;2024-02-21T09:58:10;96766.22;;;12.23;50.48
25392;BME280;13329;48.402;11.718;2024-02-21T10:00:36;96752.78;;;12.89;49.34
25392;BME280;13329;48.402;11.718;2024-02-21T10:03:02;96761.03;;;13.72;47.05
25392;BME280;13329;48.402;11.718;2024-02-21T10:05:34;96754.56;;;13.15;49.15
25392;BME280;13329;48.402;11.718;2024-02-21T10:08:01;96748.69;;;13.50;48.57
25392;BME280;13329;48.402;11.718;2024-02-21T10:10:26;96752.25;;;14.85;45.49
25392;BME280;13329;48.402;11.718;2024-02-21T10:12:53;96752.81;;;14.82;45.04
25392;BME280;13329;48.402;11.718;2024-02-21T10:15:24;96740.25;;;13.58;46.52
25392;BME280;13329;48.402;11.718;2024-02-21T10:17:53;96738.25;;;12.91;48.81
25392;BME280;13329;48.402;11.718;2024-02-21T10:20:22;96747.84;;;12.38;47.88
25392;BME280;13329;48.402;11.718;2024-02-21T10:22:48;96742.38;;;13.14;48.90
25392;BME280;13329;48.402;11.718;2024-02-21T10:25:13;96744.94;;;13.41;48.01
25392;BME280;13329;48.402;11.718;2024-02-21T10:27:39;96739.72;;;13.14;47.89
25392;BME280;13329;48.402;11.718;2024-02-21T10:30:07;96727.25;;;13.09;47.85
25392;BME280;13329;48.402;11.718;2024-02-21T10:32:33;96729.09;;;14.34;46.97
25392;BME280;13329;48.402;11.718;2024-02-21T10:35:02;96727.25;;;14.45;45.74
25392;BME280;13329;48.402;11.718;2024-02-21T10:37:29;96730.94;;;14.14;46.73
25392;BME280;13329;48.402;11.718;2024-02-21T10:39:55;96712.69;;;13.17;47.22
25392;BME280;13329;48.402;11.718;2024-02-21T10:42:22;96705.41;;;14.07;45.91
25392;BME280;13329;48.402;11.718;2024-02-21T10:44:50;96701.75;;;15.16;44.24
25392;BME280;13329;48.402;11.718;2024-02-21T10:47:19;96701.22;;;15.03;44.59
25392;BME280;13329;48.402;11.718;2024-02-21T10:49:50;96683.13;;;14.03;45.76
25392;BME280;13329;48.402;11.718;2024-02-21T10:53:07;96679.81;;;13.60;46.22
25392;BME280;13329;48.402;11.718;2024-02-21T10:55:41;96672.38;;;13.52;47.36
25392;BME280;13329;48.402;11.718;2024-02-21T10:58:12;96660.88;;;13.31;48.21
25392;BME280;13329;48.402;11.718;2024-02-21T11:00:38;96655.16;;;13.07;48.64
25392;BME280;13329;48.402;11.718;2024-02-21T11:03:05;96650.94;;;13.12;48.13
25392;BME280;13329;48.402;11.718;2024-02-21T11:05:31;96657.53;;;13.51;47.02
25392;BME280;13329;48.402;11.718;2024-02-21T11:07:58;96646.44;;;13.70;47.01
25392;BME280;13329;48.402;11.718;2024-02-21T11:10:23;96645.72;;;14.41;45.47
25392;BME280;13329;48.402;11.718;2024-02-21T11:12:52;96649.72;;;14.33;44.67
25392;BME280;13329;48.402;11.718;2024-02-21T11:15:18;96643.59;;;14.12;44.58
25392;BME280;13329;48.402;11.718;2024-02-21T11:17:54;96643.50;;;13.56;46.81
25392;BME280;13329;48.402;11.718;2024-02-21T11:20:20;96635.13;;;14.20;45.57
25392;BME280;13329;48.402;11.718;2024-02-21T11:22:46;96619.78;;;13.29;46.38
25392;BME280;13329;48.402;11.718;2024-02-21T11:25:21;96620.16;;;13.63;46.05
25392;BME280;13329;48.402;11.718;2024-02-21T11:27:46;96617.84;;;13.97;45.26
25392;BME280;13329;48.402;11.718;2024-02-21T11:30:12;96604.28;;;14.91;43.37
25392;BME280;13329;48.402;11.718;2024-02-21T11:32:40;96598.91;;;15.06;43.04
25392;BME280;13329;48.402;11.718;2024-02-21T11:35:06;96599.22;;;14.89;43.14
25392;BME280;13329;48.402;11.718;2024-02-21T11:37:32;96591.84;;;14.25;43.78
25392;BME280;13329;48.402;11.718;2024-02-21T11:39:58;96590.56;;;13.19;46.16
25392;BME280;13329;48.402;11.718;2024-02-21T11:42:28;96589.38;;;12.89;45.05
25392;BME280;13329;48.402;11.718;2024-02-21T11:44:54;96575.09;;;12.90;45.92
25392;BME280;13329;48.402;11.718;2024-02-21T11:47:22;96574.88;;;14.05;44.35
25392;BME280;13329;48.402;11.718;2024-02-21T11:49:48;96575.38;;;13.92;44.41
25392;BME280;13329;48.402;11.718;2024-02-21T11:52:15;96571.69;;;14.08;43.81
25392;BME280;13329;48.402;11.718;2024-02-21T11:54:41;96574.88;;;13.95;44.21
25392;BME280;13329;48.402;11.718;2024-02-21T11:57:07;96566.88;;;14.36;42.42
25392;BME280;13329;48.402;11.718;2024-02-21T11:59:33;96553.91;;;13.94;43.76
25392;BME280;13329;48.402;11.718;2024-02-21T12:02:00;96534.28;;;14.00;43.40
25392;BME280;13329;48.402;11.718;2024-02-21T12:04:26;96539.56;;;13.79;43.08
25392;BME280;13329;48.402;11.718;2024-02-21T12:06:52;96529.19;;;13.47;42.84
25392;BME280;13329;48.402;11.718;2024-02-21T12:09:18;96523.91;;;14.03;42.35
25392;BME280;13329;48.402;11.718;2024-02-21T12:11:44;96515.97;;;13.88;41.96
25392;BME280;13329;48.402;11.718;2024-02-21T12:14:10;96519.66;;;13.56;42.64
25392;BME280;13329;48.402;11.718;2024-02-21T12:16:36;96508.78;;;15.14;41.03
25392;BME280;13329;48.402;11.718;2024-02-21T12:19:05;96501.00;;;15.73;40.18
25392;BME280;13329;48.402;11.718;2024-02-21T12:21:31;96515.34;;;16.11;39.11
25392;BME280;13329;48.402;11.718;2024-02-21T12:23:58;96501.94;;;15.48;39.52
25392;BME280;13329;48.402;11.718;2024-02-21T12:26:23;96498.97;;;15.54;39.27
25392;BME280;13329;48.402;11.718;2024-02-21T12:28:49;96486.59;;;14.80;40.78
25392;BME280;13329;48.402;11.718;2024-02-21T12:31:14;96479.19;;;15.71;39.78
25392;BME280;13329;48.402;11.718;2024-02-21T12:33:41;96485.31;;;16.05;38.36
25392;BME280;13329;48.402;11.718;2024-02-21T12:36:07;96474.81;;;16.14;38.59
25392;BME280;13329;48.402;11.718;2024-02-21T12:38:34;96472.78;;;16.06;38.00
25392;BME280;13329;48.402;11.718;2024-02-21T12:40:59;96467.56;;;15.56;37.89
25392;BME280;13329;48.402;11.718;2024-02-21T12:43:25;96463.66;;;14.99;39.42
25392;BME280;13329;48.402;11.718;2024-02-21T12:45:51;96454.78;;;15.58;37.85
25392;BME280;13329;48.402;11.718;2024-02-21T12:48:17;96451.78;;;14.86;38.49
25392;BME280;13329;48.402;11.718;2024-02-21T12:50:48;96443.03;;;13.91;40.91
25392;BME280;13329;48.402;11.718;2024-02-21T12:53:15;96435.09;;;15.59;38.06